Time;durP1;ratioP1;P1;durP2;ratioP2;P2;SDS_P1;SDS_P2;PMS_P1;PMS_P2;Temp;Humidity;BMP_temperature;BMP_pressure;BME280_temperature;BME280_humidity;BME280_pressure;Samples;Min_cycle;Max_cycle;Signal;HPM_P1;HPM_P2
2022/08/22 00:01:16;;;;;;;;;;;;;;;;;;5097532;28;20373;-22
2022/08/22 00:03:42;;;;;;;;;;;;;;;;;;5097532;28;19908;-25
2022/08/22 00:06:08;;;;;;;;;;;;;;;;;;5097439;28;19923;-22
2022/08/22 00:08:34;;;;;;;;;;;;;;;;;;5097437;28;20270;-22
2022/08/22 00:11:01;;;;;;;;;;;;;;;;;;5097636;28;19916;-23
2022/08/22 00:13:27;;;;;;;;;;;;;;;;;;5097213;28;20002;-23
2022/08/22 00:15:53;;;;;;;;;;;;;;;;;;5097262;28;20049;-23
2022/08/22 00:18:19;;;;;;;;;;;;;;;;;;5097241;28;19916;-23
2022/08/22 00:20:45;;;;;;;;;;;;;;;;;;5097237;28;20343;-22
2022/08/22 00:23:11;;;;;;;;;;;;;;;;;;5097078;28;20369;-23
2022/08/22 00:25:37;;;;;;;;;;;;;;;;;;5097404;28;19916;-23
2022/08/22 00:28:03;;;;;;;;;;;;;;;;;;5096984;28;19923;-23
2022/08/22 00:30:29;;;;;;;;;;;;;;;;;;5096930;28;19912;-22
2022/08/22 00:32:55;;;;;;;;;;;;;;;;;;5096830;28;19916;-23
2022/08/22 00:35:21;;;;;;;;;;;;;;;;;;5097185;28;19923;-22
2022/08/22 00:37:47;;;;;;;;;;;;;;;;;;5096851;28;20301;-22
2022/08/22 00:40:14;;;;;;;;;;;;;;;;;;5096793;28;19962;-24
2022/08/22 00:42:40;;;;;;;;;;;;;;;;;;5096694;28;19912;-24
2022/08/22 00:45:06;;;;;;;;;;;;;;;;;;5096694;28;19914;-24
2022/08/22 00:47:32;;;;;;;;;;;;;;;;;;5096458;28;19917;-24
2022/08/22 00:49:58;;;;;;;;;;;;;;;;;;5096886;28;20229;-22
2022/08/22 00:52:24;;;;;;;;;;;;;;;;;;5096492;28;20350;-23
2022/08/22 00:54:50;;;;;;;;;;;;;;;;;;5096756;28;19913;-23
2022/08/22 00:57:17;;;;;;;;;;;;;;;;;;5096500;28;19912;-23
2022/08/22 00:59:43;;;;;;;;;;;;;;;;;;5096702;28;19927;-22
2022/08/22 01:02:09;;;;;;;;;;;;;;;;;;5096198;28;20263;-22
2022/08/22 01:04:35;;;;;;;;;;;;;;;;;;5096356;28;19920;-22
2022/08/22 01:07:02;;;;;;;;;;;;;;;;;;5096329;28;19923;-23
2022/08/22 01:09:28;;;;;;;;;;;;;;;;;;5096193;28;19916;-25
2022/08/22 01:11:54;;;;;;;;;;;;;;;;;;5096143;28;19974;-23
2022/08/22 01:14:20;;;;;;;;;;;;;;;;;;5096126;28;19923;-22
2022/08/22 01:16:46;;;;;;;;;;;;;;;;;;5096417;28;19955;-22
2022/08/22 01:19:12;;;;;;;;;;;;;;;;;;5096343;28;19942;-23
2022/08/22 01:21:38;;;;;;;;;;;;;;;;;;5096327;28;20312;-22
2022/08/22 01:24:04;;;;;;;;;;;;;;;;;;5095948;28;19912;-23
2022/08/22 01:26:30;;;;;;;;;;;;;;;;;;5096253;28;19912;-23
2022/08/22 01:28:56;;;;;;;;;;;;;;;;;;5095905;28;19964;-23
2022/08/22 01:31:22;;;;;;;;;;;;;;;;;;5095877;28;20338;-25
2022/08/22 01:33:48;;;;;;;;;;;;;;;;;;5096038;28;20266;-23
2022/08/22 01:36:14;;;;;;;;;;;;;;;;;;5096646;28;19908;-22
2022/08/22 01:38:40;;;;;;;;;;;;;;;;;;5095756;28;19965;-27
2022/08/22 01:41:06;;;;;;;;;;;;;;;;;;5095717;28;19912;-22
2022/08/22 01:43:32;;;;;;;;;;;;;;;;;;5095661;28;19908;-22
2022/08/22 01:45:58;;;;;;;;;;;;;;;;;;5095661;28;19991;-23
2022/08/22 01:48:24;;;;;;;;;;;;;;;;;;5095480;28;19966;-22
2022/08/22 01:50:51;;;;;;;;;;;;;;;;;;5095464;28;19941;-28
2022/08/22 01:53:17;;;;;;;;;;;;;;;;;;5095413;28;20343;-23
2022/08/22 01:55:43;;;;;;;;;;;;;;;;;;5095758;28;19928;-23
2022/08/22 01:58:09;;;;;;;;;;;;;;;;;;5095444;28;20037;-22
2022/08/22 02:00:36;;;;;;;;;;;;;;;;;;5095718;28;19969;-23
2022/08/22 02:03:02;;;;;;;;;;;;;;;;;;5095301;28;19908;-23
2022/08/22 02:05:29;;;;;;;;;;;;;;;;;;5095331;28;19920;-24
2022/08/22 02:07:55;;;;;;;;;;;;;;;;;;5095416;28;20232;-22
2022/08/22 02:10:21;;;;;;;;;;;;;;;;;;5095240;28;19974;-22
2022/08/22 02:12:48;;;;;;;;;;;;;;;;;;5094739;28;20322;-22
2022/08/22 02:15:14;;;;;;;;;;;;;;;;;;5095289;28;19951;-22
2022/08/22 02:17:40;;;;;;;;;;;;;;;;;;5095258;28;19916;-23
2022/08/22 02:20:06;;;;;;;;;;;;;;;;;;5095258;28;19916;-23
2022/08/22 02:22:32;;;;;;;;;;;;;;;;;;5095171;28;19947;-24
2022/08/22 02:24:58;;;;;;;;;;;;;;;;;;5095451;28;20254;-23
2022/08/22 02:27:24;;;;;;;;;;;;;;;;;;5095174;28;19908;-23
2022/08/22 02:29:50;;;;;;;;;;;;;;;;;;5095316;28;19999;-23
2022/08/22 02:32:16;;;;;;;;;;;;;;;;;;5095326;28;19962;-23
2022/08/22 02:34:42;;;;;;;;;;;;;;;;;;5095077;28;20350;-24
2022/08/22 02:37:08;;;;;;;;;;;;;;;;;;5095078;28;19912;-23
2022/08/22 02:39:35;;;;;;;;;;;;;;;;;;5095043;28;19912;-22
2022/08/22 02:42:01;;;;;;;;;;;;;;;;;;5095284;28;19958;-26
2022/08/22 02:44:27;;;;;;;;;;;;;;;;;;5095332;28;20004;-22
2022/08/22 02:46:53;;;;;;;;;;;;;;;;;;5095024;28;20396;-23
2022/08/22 02:49:19;;;;;;;;;;;;;;;;;;5094686;28;19973;-24
2022/08/22 02:51:45;;;;;;;;;;;;;;;;;;5095218;28;19916;-27
2022/08/22 02:54:11;;;;;;;;;;;;;;;;;;5094816;28;19912;-24
2022/08/22 02:56:38;;;;;;;;;;;;;;;;;;5094885;28;20224;-26
2022/08/22 02:59:04;;;;;;;;;;;;;;;;;;5095129;28;19928;-23
2022/08/22 03:01:30;;;;;;;;;;;;;;;;;;5094822;28;20008;-23
2022/08/22 03:03:56;;;;;;;;;;;;;;;;;;5094784;28;19919;-23
2022/08/22 03:06:22;;;;;;;;;;;;;;;;;;5094780;28;19916;-24
2022/08/22 03:08:48;;;;;;;;;;;;;;;;;;5095056;28;19969;-22
2022/08/22 03:11:14;;;;;;;;;;;;;;;;;;5094683;28;20403;-22
2022/08/22 03:13:40;;;;;;;;;;;;;;;;;;5094944;28;20335;-24
2022/08/22 03:16:06;;;;;;;;;;;;;;;;;;5094740;28;19915;-23
2022/08/22 03:18:32;;;;;;;;;;;;;;;;;;5094739;28;19908;-24
2022/08/22 03:20:58;;;;;;;;;;;;;;;;;;5094980;28;19912;-24
2022/08/22 03:23:24;;;;;;;;;;;;;;;;;;5094659;28;19919;-27
2022/08/22 03:25:50;;;;;;;;;;;;;;;;;;5096510;28;19955;-23
2022/08/22 03:28:16;;;;;;;;;;;;;;;;;;5098226;28;19912;-23
2022/08/22 03:30:42;;;;;;;;;;;;;;;;;;5098186;28;19912;-24
2022/08/22 03:33:08;;;;;;;;;;;;;;;;;;5097148;28;19923;-23
2022/08/22 03:35:34;;;;;;;;;;;;;;;;;;5098154;28;19984;-25
2022/08/22 03:38:00;;;;;;;;;;;;;;;;;;5098075;28;19916;-23
2022/08/22 03:40:26;;;;;;;;;;;;;;;;;;5097940;28;19917;-23
2022/08/22 03:42:52;;;;;;;;;;;;;;;;;;5097784;28;19908;-24
2022/08/22 03:45:18;;;;;;;;;;;;;;;;;;5098733;28;20392;-23
2022/08/22 03:47:44;;;;;;;;;;;;;;;;;;5097609;28;19924;-23
2022/08/22 03:50:10;;;;;;;;;;;;;;;;;;5097694;28;19978;-23
2022/08/22 03:53:05;;;;;;;;;;;;;;;;;;5097628;28;20007;-23
2022/08/22 03:55:22;;;;;;;;;;;;;;;;;;5097590;28;20362;-25
2022/08/22 03:57:48;;;;;;;;;;;;;;;;;;5097449;28;19966;-24
2022/08/22 04:00:14;;;;;;;;;;;;;;;;;;5097789;28;19916;-24
2022/08/22 04:02:40;;;;;;;;;;;;;;;;;;5097657;28;19924;-23
2022/08/22 04:05:06;;;;;;;;;;;;;;;;;;5097849;28;19938;-22
2022/08/22 04:07:32;;;;;;;;;;;;;;;;;;5097286;28;19912;-24
2022/08/22 04:09:58;;;;;;;;;;;;;;;;;;5097362;28;19912;-23
2022/08/22 04:12:24;;;;;;;;;;;;;;;;;;5097208;28;20355;-29
2022/08/22 04:14:50;;;;;;;;;;;;;;;;;;5097111;28;19995;-23
2022/08/22 04:17:16;;;;;;;;;;;;;;;;;;5097016;28;19908;-23
2022/08/22 04:19:42;;;;;;;;;;;;;;;;;;5096991;28;19919;-24
2022/08/22 04:22:08;;;;;;;;;;;;;;;;;;5096967;28;20400;-23
2022/08/22 04:24:34;;;;;;;;;;;;;;;;;;5097336;28;19961;-23
2022/08/22 04:27:00;;;;;;;;;;;;;;;;;;5096919;28;19916;-25
2022/08/22 04:29:26;;;;;;;;;;;;;;;;;;5096673;28;19912;-23
2022/08/22 04:31:52;;;;;;;;;;;;;;;;;;5097094;28;19912;-25
2022/08/22 04:34:18;;;;;;;;;;;;;;;;;;5096825;28;19912;-24
2022/08/22 04:36:44;;;;;;;;;;;;;;;;;;5096184;28;19923;-23
2022/08/22 04:39:10;;;;;;;;;;;;;;;;;;5097048;28;20350;-23
2022/08/22 04:41:36;;;;;;;;;;;;;;;;;;5096728;28;19912;-26
2022/08/22 04:44:02;;;;;;;;;;;;;;;;;;5096538;28;19950;-23
2022/08/22 04:46:28;;;;;;;;;;;;;;;;;;5096875;28;19912;-23
2022/08/22 04:48:54;;;;;;;;;;;;;;;;;;5096363;28;19920;-24
2022/08/22 04:51:21;;;;;;;;;;;;;;;;;;5097023;28;19949;-23
2022/08/22 04:53:47;;;;;;;;;;;;;;;;;;5096315;28;19912;-23
2022/08/22 04:56:13;;;;;;;;;;;;;;;;;;5096703;28;19923;-25
2022/08/22 04:58:39;;;;;;;;;;;;;;;;;;5096423;28;19912;-23
2022/08/22 05:01:05;;;;;;;;;;;;;;;;;;5096578;28;20211;-23
2022/08/22 05:03:31;;;;;;;;;;;;;;;;;;5096276;28;19908;-23
2022/08/22 05:05:56;;;;;;;;;;;;;;;;;;5096224;28;19920;-22
2022/08/22 05:08:22;;;;;;;;;;;;;;;;;;5096449;28;19908;-23
2022/08/22 05:10:48;;;;;;;;;;;;;;;;;;5095161;28;19916;-22
2022/08/22 05:13:14;;;;;;;;;;;;;;;;;;5096270;28;19935;-24
2022/08/22 05:15:40;;;;;;;;;;;;;;;;;;5096326;28;20327;-24
2022/08/22 05:18:06;;;;;;;;;;;;;;;;;;5096047;28;20231;-27
2022/08/22 05:20:32;;;;;;;;;;;;;;;;;;5096188;28;20301;-26
2022/08/22 05:22:58;;;;;;;;;;;;;;;;;;5096064;28;19908;-24
2022/08/22 05:25:24;;;;;;;;;;;;;;;;;;5095896;28;19919;-26
2022/08/22 05:27:50;;;;;;;;;;;;;;;;;;5096065;28;19922;-28
2022/08/22 05:30:16;;;;;;;;;;;;;;;;;;5095714;28;20327;-24
2022/08/22 05:32:42;;;;;;;;;;;;;;;;;;5095944;28;20395;-24
2022/08/22 05:35:08;;;;;;;;;;;;;;;;;;5095726;28;19912;-24
2022/08/22 05:37:34;;;;;;;;;;;;;;;;;;5096032;28;20273;-23
2022/08/22 05:40:00;;;;;;;;;;;;;;;;;;5095619;28;20347;-25
2022/08/22 05:42:26;;;;;;;;;;;;;;;;;;5095725;28;19923;-24
2022/08/22 05:44:52;;;;;;;;;;;;;;;;;;5095604;28;19908;-24
2022/08/22 05:47:18;;;;;;;;;;;;;;;;;;5095717;28;19919;-25
2022/08/22 05:49:44;;;;;;;;;;;;;;;;;;5095039;28;19908;-24
2022/08/22 05:52:10;;;;;;;;;;;;;;;;;;5095330;28;19920;-25
2022/08/22 05:54:36;;;;;;;;;;;;;;;;;;5095381;28;19919;-25
2022/08/22 05:57:02;;;;;;;;;;;;;;;;;;5095783;28;19960;-23
2022/08/22 05:59:28;;;;;;;;;;;;;;;;;;5095349;28;20270;-23
2022/08/22 06:04:32;;;;;;;;;;;;;;;;;;5074256;28;19985;-25
2022/08/22 06:06:58;;;;;;;;;;;;;;;;;;5075362;28;19991;-25
2022/08/22 06:09:24;;;;;;;;;;;;;;;;;;5075335;28;20258;-24
2022/08/22 06:11:51;;;;;;;;;;;;;;;;;;5075128;28;19916;-25
2022/08/22 06:14:17;;;;;;;;;;;;;;;;;;5075069;28;19908;-25
2022/08/22 06:16:43;;;;;;;;;;;;;;;;;;5075511;28;20043;-26
2022/08/22 06:19:09;;;;;;;;;;;;;;;;;;5074971;28;19909;-25
2022/08/22 06:21:36;;;;;;;;;;;;;;;;;;5074926;28;19912;-25
2022/08/22 06:24:02;;;;;;;;;;;;;;;;;;5057057;28;19975;-27
2022/08/22 06:26:28;;;;;;;;;;;;;;;;;;5074895;28;19909;-25
2022/08/22 06:28:54;;;;;;;;;;;;;;;;;;5075109;28;19917;-24
2022/08/22 06:31:20;;;;;;;;;;;;;;;;;;5074856;28;19912;-25
2022/08/22 06:33:46;;;;;;;;;;;;;;;;;;5074771;28;19913;-25
2022/08/22 06:36:31;;;;;;;;;;;;;;;;;;5074867;28;19944;-25
2022/08/22 06:38:57;;;;;;;;;;;;;;;;;;5074724;28;20007;-25
2022/08/22 06:41:23;;;;;;;;;;;;;;;;;;5074775;28;19917;-25
2022/08/22 06:43:51;;;;;;;;;;;;;;;;;;5074708;28;19916;-25
2022/08/22 06:46:17;;;;;;;;;;;;;;;;;;5074649;28;19912;-25
2022/08/22 06:48:43;;;;;;;;;;;;;;;;;;5074690;28;20007;-25
2022/08/22 06:51:09;;;;;;;;;;;;;;;;;;5056797;28;19917;-26
2022/08/22 06:53:37;;;;;;;;;;;;;;;;;;5056842;28;19919;-25
2022/08/22 06:56:04;;;;;;;;;;;;;;;;;;5074607;28;19913;-25
2022/08/22 06:58:30;;;;;;;;;;;;;;;;;;5074470;28;19999;-25
2022/08/22 07:00:56;;;;;;;;;;;;;;;;;;5077892;28;19912;-25
2022/08/22 07:03:22;;;;;;;;;;;;;;;;;;5078065;28;19920;-25
2022/08/22 07:05:48;;;;;;;;;;;;;;;;;;5078257;28;20226;-32
2022/08/22 07:08:14;;;;;;;;;;;;;;;;;;5078268;28;20257;-25
2022/08/22 07:10:40;;;;;;;;;;;;;;;;;;5078021;28;20007;-25
2022/08/22 07:13:12;;;;;;;;;;;;;;;;;;5078165;28;19913;-25
2022/08/22 07:15:38;;;;;;;;;;;;;;;;;;5078009;28;19958;-26
2022/08/22 07:18:04;;;;;;;;;;;;;;;;;;5078346;28;19909;-26
2022/08/22 07:20:30;;;;;;;;;;;;;;;;;;5078051;28;19995;-25
2022/08/22 07:22:56;;;;;;;;;;;;;;;;;;5077872;28;19912;-25
2022/08/22 07:25:23;;;;;;;;;;;;;;;;;;5077952;28;19919;-25
2022/08/22 07:27:49;;;;;;;;;;;;;;;;;;5077937;28;19978;-26
2022/08/22 07:30:16;;;;;;;;;;;;;;;;;;5077978;28;19920;-25
2022/08/22 07:32:42;;;;;;;;;;;;;;;;;;5077696;28;20343;-25
2022/08/22 07:35:08;;;;;;;;;;;;;;;;;;5078518;28;19961;-26
2022/08/22 07:37:35;;;;;;;;;;;;;;;;;;5060135;28;19951;-25
2022/08/22 07:40:02;;;;;;;;;;;;;;;;;;5077821;28;19913;-25
2022/08/22 07:42:28;;;;;;;;;;;;;;;;;;5077433;28;19927;-26
2022/08/22 07:44:54;;;;;;;;;;;;;;;;;;5077655;28;20019;-25
2022/08/22 07:47:20;;;;;;;;;;;;;;;;;;5059906;28;19912;-26
2022/08/22 07:49:46;;;;;;;;;;;;;;;;;;5077474;28;19913;-26
2022/08/22 07:52:12;;;;;;;;;;;;;;;;;;5077714;28;19917;-25
2022/08/22 07:54:38;;;;;;;;;;;;;;;;;;5077345;28;19909;-25
2022/08/22 07:57:05;;;;;;;;;;;;;;;;;;5077531;28;20219;-26
2022/08/22 07:59:31;;;;;;;;;;;;;;;;;;5077875;28;19908;-25
2022/08/22 08:01:57;;;;;;;;;;;;;;;;;;5077163;28;20007;-26
2022/08/22 08:04:24;;;;;;;;;;;;;;;;;;5076898;28;19925;-25
2022/08/22 08:06:51;;;;;;;;;;;;;;;;;;5077126;28;20312;-26
2022/08/22 08:09:17;;;;;;;;;;;;;;;;;;5077195;28;20011;-25
2022/08/22 08:11:43;;;;;;;;;;;;;;;;;;5076094;28;19966;-26
2022/08/22 08:14:09;;;;;;;;;;;;;;;;;;5077158;28;20289;-26
2022/08/22 08:16:35;;;;;;;;;;;;;;;;;;5077116;28;19909;-26
2022/08/22 08:19:03;;;;;;;;;;;;;;;;;;5076826;28;19915;-26
2022/08/22 08:21:29;;;;;;;;;;;;;;;;;;5077514;28;19908;-25
2022/08/22 08:23:55;;;;;;;;;;;;;;;;;;5076780;28;19920;-26
2022/08/22 08:26:21;;;;;;;;;;;;;;;;;;5076950;28;19992;-26
2022/08/22 08:28:47;;;;;;;;;;;;;;;;;;5059048;28;20361;-26
2022/08/22 08:31:13;;;;;;;;;;;;;;;;;;5076746;28;20247;-25
2022/08/22 08:33:39;;;;;;;;;;;;;;;;;;5076525;28;19908;-25
2022/08/22 08:36:05;;;;;;;;;;;;;;;;;;5076595;28;19912;-25
2022/08/22 08:38:31;;;;;;;;;;;;;;;;;;5077294;28;20003;-26
2022/08/22 08:40:57;;;;;;;;;;;;;;;;;;5076642;28;19912;-26
2022/08/22 08:43:27;;;;;;;;;;;;;;;;;;5058823;28;19923;-26
2022/08/22 08:45:53;;;;;;;;;;;;;;;;;;5076639;28;20003;-26
2022/08/22 08:48:19;;;;;;;;;;;;;;;;;;5076366;28;19963;-25
2022/08/22 08:50:45;;;;;;;;;;;;;;;;;;5076239;28;20008;-25
2022/08/22 08:53:11;;;;;;;;;;;;;;;;;;5076079;28;19943;-26
2022/08/22 08:55:37;;;;;;;;;;;;;;;;;;5076477;28;19920;-26
2022/08/22 08:58:03;;;;;;;;;;;;;;;;;;5076405;28;20071;-26
2022/08/22 09:00:29;;;;;;;;;;;;;;;;;;5076158;28;19973;-26
2022/08/22 09:02:55;;;;;;;;;;;;;;;;;;5075759;28;19928;-26
2022/08/22 09:05:21;;;;;;;;;;;;;;;;;;5075903;28;20279;-26
2022/08/22 09:07:47;;;;;;;;;;;;;;;;;;5058434;28;20254;-26
2022/08/22 09:10:13;;;;;;;;;;;;;;;;;;5075878;28;19920;-25
2022/08/22 09:12:39;;;;;;;;;;;;;;;;;;5075871;28;20258;-26
2022/08/22 09:15:05;;;;;;;;;;;;;;;;;;5075799;28;19924;-25
2022/08/22 09:17:31;;;;;;;;;;;;;;;;;;5075718;28;19912;-26
2022/08/22 09:19:58;;;;;;;;;;;;;;;;;;5075657;28;19917;-25
2022/08/22 09:22:24;;;;;;;;;;;;;;;;;;5075666;28;19916;-26
2022/08/22 09:24:51;;;;;;;;;;;;;;;;;;5075523;28;19935;-25
2022/08/22 09:27:17;;;;;;;;;;;;;;;;;;5075391;28;19912;-25
2022/08/22 09:29:43;;;;;;;;;;;;;;;;;;5075402;28;19909;-25
2022/08/22 09:32:09;;;;;;;;;;;;;;;;;;5075571;28;20305;-26
2022/08/22 09:34:36;;;;;;;;;;;;;;;;;;5075367;28;19912;-26
2022/08/22 09:37:03;;;;;;;;;;;;;;;;;;5075380;28;19915;-25
2022/08/22 09:39:29;;;;;;;;;;;;;;;;;;5075572;28;20251;-26
2022/08/22 09:41:55;;;;;;;;;;;;;;;;;;5057585;28;19920;-25
2022/08/22 09:44:21;;;;;;;;;;;;;;;;;;5075248;28;19912;-26
2022/08/22 09:46:47;;;;;;;;;;;;;;;;;;5075214;28;19908;-26
2022/08/22 09:49:13;;;;;;;;;;;;;;;;;;5075526;28;20006;-26
2022/08/22 09:51:39;;;;;;;;;;;;;;;;;;5075394;28;19926;-26
2022/08/22 09:54:07;;;;;;;;;;;;;;;;;;5074762;28;20283;-26
2022/08/22 09:56:33;;;;;;;;;;;;;;;;;;5075186;28;19912;-26
2022/08/22 09:58:59;;;;;;;;;;;;;;;;;;5075374;28;19909;-25
2022/08/22 10:01:25;;;;;;;;;;;;;;;;;;5075286;28;20382;-24
2022/08/22 10:03:52;;;;;;;;;;;;;;;;;;5074783;28;19916;-26
2022/08/22 10:06:18;;;;;;;;;;;;;;;;;;5074928;28;19916;-26
2022/08/22 10:08:44;;;;;;;;;;;;;;;;;;5074942;28;20346;-25
2022/08/22 10:11:10;;;;;;;;;;;;;;;;;;5057218;28;20058;-25
2022/08/22 10:13:37;;;;;;;;;;;;;;;;;;5057155;28;19908;-25
2022/08/22 10:16:03;;;;;;;;;;;;;;;;;;5075125;28;19942;-25
2022/08/22 10:18:29;;;;;;;;;;;;;;;;;;5075098;28;20344;-26
2022/08/22 10:20:55;;;;;;;;;;;;;;;;;;5075331;28;19909;-25
2022/08/22 10:23:21;;;;;;;;;;;;;;;;;;5074727;28;20335;-27
2022/08/22 10:25:48;;;;;;;;;;;;;;;;;;5074998;28;19908;-26
2022/08/22 10:28:14;;;;;;;;;;;;;;;;;;5074974;28;19944;-25
2022/08/22 10:30:41;;;;;;;;;;;;;;;;;;5074552;28;19974;-26
2022/08/22 10:33:07;;;;;;;;;;;;;;;;;;5074636;28;20050;-25
2022/08/22 10:35:33;;;;;;;;;;;;;;;;;;5060110;28;19917;-26
2022/08/22 10:37:59;;;;;;;;;;;;;;;;;;5061102;28;19909;-26
2022/08/22 10:40:25;;;;;;;;;;;;;;;;;;5078921;28;19913;-26
2022/08/22 10:42:51;;;;;;;;;;;;;;;;;;5060922;28;20255;-25
2022/08/22 10:45:17;;;;;;;;;;;;;;;;;;5078677;28;19945;-25
2022/08/22 10:47:43;;;;;;;;;;;;;;;;;;5060928;28;19916;-26
2022/08/22 10:50:09;;;;;;;;;;;;;;;;;;5078690;28;19912;-26
2022/08/22 10:52:36;;;;;;;;;;;;;;;;;;5078670;28;20350;-26
2022/08/22 10:55:02;;;;;;;;;;;;;;;;;;5060689;28;20363;-26
2022/08/22 10:57:28;;;;;;;;;;;;;;;;;;5078824;28;19944;-25
2022/08/22 10:59:54;;;;;;;;;;;;;;;;;;5078276;28;19962;-26
2022/08/22 11:02:19;;;;;;;;;;;;;;;;;;5060450;28;19918;-26
2022/08/22 11:04:45;;;;;;;;;;;;;;;;;;5078602;28;19923;-25
2022/08/22 11:07:11;;;;;;;;;;;;;;;;;;5078357;28;19944;-26
2022/08/22 11:09:37;;;;;;;;;;;;;;;;;;5078172;28;19955;-26
2022/08/22 11:12:03;;;;;;;;;;;;;;;;;;5078133;28;20012;-25
2022/08/22 11:14:30;;;;;;;;;;;;;;;;;;5060409;28;19916;-25
2022/08/22 11:16:55;;;;;;;;;;;;;;;;;;5077917;28;19912;-25
2022/08/22 11:19:21;;;;;;;;;;;;;;;;;;5060411;28;19909;-25
2022/08/22 11:21:47;;;;;;;;;;;;;;;;;;5060248;28;19965;-25
2022/08/22 11:24:15;;;;;;;;;;;;;;;;;;5077855;28;19916;-25
2022/08/22 11:26:42;;;;;;;;;;;;;;;;;;5077832;28;20288;-25
2022/08/22 11:29:08;;;;;;;;;;;;;;;;;;5077907;28;19913;-24
2022/08/22 11:31:34;;;;;;;;;;;;;;;;;;5059969;28;20343;-25
2022/08/22 11:34:00;;;;;;;;;;;;;;;;;;5077883;28;19919;-26
2022/08/22 11:36:26;;;;;;;;;;;;;;;;;;5077664;28;19920;-26
2022/08/22 11:38:52;;;;;;;;;;;;;;;;;;5077628;28;19919;-26
2022/08/22 11:41:18;;;;;;;;;;;;;;;;;;5059982;28;19909;-26
2022/08/22 11:43:44;;;;;;;;;;;;;;;;;;5077457;28;19913;-26
2022/08/22 11:46:10;;;;;;;;;;;;;;;;;;5076240;28;20417;-26
2022/08/22 11:48:36;;;;;;;;;;;;;;;;;;5059791;28;19912;-26
2022/08/22 11:51:02;;;;;;;;;;;;;;;;;;5077344;28;19916;-26
2022/08/22 11:53:28;;;;;;;;;;;;;;;;;;5077607;28;19908;-26
2022/08/22 11:55:54;;;;;;;;;;;;;;;;;;5059567;28;20011;-26
2022/08/22 11:58:20;;;;;;;;;;;;;;;;;;5077251;28;19913;-26
2022/08/22 12:00:47;;;;;;;;;;;;;;;;;;5077163;28;19962;-26
2022/08/22 12:03:14;;;;;;;;;;;;;;;;;;5055946;28;19981;-26
2022/08/22 12:05:40;;;;;;;;;;;;;;;;;;5057079;28;19913;-26
2022/08/22 12:08:06;;;;;;;;;;;;;;;;;;5057016;28;19974;-26
2022/08/22 12:10:32;;;;;;;;;;;;;;;;;;5057200;28;19928;-26
2022/08/22 12:12:59;;;;;;;;;;;;;;;;;;5057138;28;20347;-26
2022/08/22 12:15:25;;;;;;;;;;;;;;;;;;5057267;28;19908;-26
2022/08/22 12:17:51;;;;;;;;;;;;;;;;;;5056819;28;20237;-26
2022/08/22 12:20:17;;;;;;;;;;;;;;;;;;5057105;28;19917;-26
2022/08/22 12:22:45;;;;;;;;;;;;;;;;;;5057535;28;19978;-26
2022/08/22 12:25:11;;;;;;;;;;;;;;;;;;5056723;28;19971;-26
2022/08/22 12:27:37;;;;;;;;;;;;;;;;;;5056602;28;19913;-26
2022/08/22 12:30:03;;;;;;;;;;;;;;;;;;5056427;28;20004;-26
2022/08/22 12:32:32;;;;;;;;;;;;;;;;;;5056741;28;20039;-26
2022/08/22 12:34:58;;;;;;;;;;;;;;;;;;5056448;28;19982;-26
2022/08/22 12:37:24;;;;;;;;;;;;;;;;;;5056715;28;20258;-26
2022/08/22 12:39:50;;;;;;;;;;;;;;;;;;5056656;28;19908;-26
2022/08/22 12:42:16;;;;;;;;;;;;;;;;;;5056364;28;20374;-26
2022/08/22 12:44:42;;;;;;;;;;;;;;;;;;5056350;28;19939;-26
2022/08/22 12:47:08;;;;;;;;;;;;;;;;;;5056577;28;20251;-26
2022/08/22 12:49:35;;;;;;;;;;;;;;;;;;5056711;28;19917;-26
2022/08/22 12:52:01;;;;;;;;;;;;;;;;;;5055804;28;20363;-26
2022/08/22 12:54:27;;;;;;;;;;;;;;;;;;5056060;28;20298;-26
2022/08/22 12:56:53;;;;;;;;;;;;;;;;;;5055685;28;19915;-26
2022/08/22 12:59:20;;;;;;;;;;;;;;;;;;5056206;28;20306;-26
2022/08/22 13:01:46;;;;;;;;;;;;;;;;;;5056031;28;19913;-26
2022/08/22 13:04:12;;;;;;;;;;;;;;;;;;5054953;28;19917;-26
2022/08/22 13:06:38;;;;;;;;;;;;;;;;;;5055912;28;20359;-26
2022/08/22 13:09:04;;;;;;;;;;;;;;;;;;5055854;28;19920;-26
2022/08/22 13:11:30;;;;;;;;;;;;;;;;;;5056106;28;19917;-26
2022/08/22 13:13:56;;;;;;;;;;;;;;;;;;5055599;28;19913;-26
2022/08/22 13:16:22;;;;;;;;;;;;;;;;;;5055553;28;19990;-26
2022/08/22 13:18:48;;;;;;;;;;;;;;;;;;5055633;28;19913;-26
2022/08/22 13:21:14;;;;;;;;;;;;;;;;;;5055864;28;20228;-27
2022/08/22 13:23:40;;;;;;;;;;;;;;;;;;5055838;28;19920;-26
2022/08/22 13:26:06;;;;;;;;;;;;;;;;;;5055667;28;19994;-26
2022/08/22 13:28:32;;;;;;;;;;;;;;;;;;5055474;28;20299;-26
2022/08/22 13:30:58;;;;;;;;;;;;;;;;;;5055666;28;19924;-26
2022/08/22 13:33:24;;;;;;;;;;;;;;;;;;5055609;28;19974;-26
2022/08/22 13:35:50;;;;;;;;;;;;;;;;;;5054338;28;20335;-26
2022/08/22 13:38:16;;;;;;;;;;;;;;;;;;5055387;28;19913;-26
2022/08/22 13:40:42;;;;;;;;;;;;;;;;;;5055160;28;19962;-26
2022/08/22 13:43:08;;;;;;;;;;;;;;;;;;5055208;28;19913;-26
2022/08/22 13:45:34;;;;;;;;;;;;;;;;;;5054323;28;19942;-26
2022/08/22 13:48:00;;;;;;;;;;;;;;;;;;5055223;28;20051;-26
2022/08/22 13:50:27;;;;;;;;;;;;;;;;;;5055165;28;19912;-26
2022/08/22 13:52:53;;;;;;;;;;;;;;;;;;5055149;28;20003;-26
2022/08/22 13:55:19;;;;;;;;;;;;;;;;;;5055145;28;19963;-26
2022/08/22 13:57:45;;;;;;;;;;;;;;;;;;5054125;28;19920;-26
2022/08/22 14:00:11;;;;;;;;;;;;;;;;;;5055051;28;19909;-26
2022/08/22 14:02:38;;;;;;;;;;;;;;;;;;5058831;28;20354;-26
2022/08/22 14:05:04;;;;;;;;;;;;;;;;;;5057896;28;20029;-26
2022/08/22 14:07:30;;;;;;;;;;;;;;;;;;5074976;28;19923;-26
2022/08/22 14:09:56;;;;;;;;;;;;;;;;;;5074550;28;19909;-26
2022/08/22 14:12:22;;;;;;;;;;;;;;;;;;5074983;28;19967;-26
2022/08/22 14:14:48;;;;;;;;;;;;;;;;;;5074965;28;19967;-26
2022/08/22 14:17:14;;;;;;;;;;;;;;;;;;5075497;28;19924;-26
2022/08/22 14:19:40;;;;;;;;;;;;;;;;;;5074996;28;20279;-26
2022/08/22 14:22:06;;;;;;;;;;;;;;;;;;5075090;28;19923;-26
2022/08/22 14:24:32;;;;;;;;;;;;;;;;;;5057221;28;19908;-26
2022/08/22 14:26:58;;;;;;;;;;;;;;;;;;5057031;28;20263;-26
2022/08/22 14:29:24;;;;;;;;;;;;;;;;;;5075334;28;19939;-26
2022/08/22 14:31:50;;;;;;;;;;;;;;;;;;5074894;28;20342;-26
2022/08/22 14:34:16;;;;;;;;;;;;;;;;;;5074844;28;19913;-26
2022/08/22 14:36:42;;;;;;;;;;;;;;;;;;5074748;28;20255;-26
2022/08/22 14:39:08;;;;;;;;;;;;;;;;;;5075073;28;19908;-26
2022/08/22 14:41:35;;;;;;;;;;;;;;;;;;5074830;28;19909;-26
2022/08/22 14:44:01;;;;;;;;;;;;;;;;;;5074583;28;19922;-26
2022/08/22 14:46:27;;;;;;;;;;;;;;;;;;5074648;28;20023;-26
2022/08/22 14:48:53;;;;;;;;;;;;;;;;;;5074870;28;19978;-26
2022/08/22 14:51:19;;;;;;;;;;;;;;;;;;5074698;28;19951;-26
2022/08/22 14:53:45;;;;;;;;;;;;;;;;;;5074570;28;19923;-26
2022/08/22 14:56:11;;;;;;;;;;;;;;;;;;5074544;28;19923;-26
2022/08/22 14:58:37;;;;;;;;;;;;;;;;;;5074499;28;19923;-26
2022/08/22 15:01:03;;;;;;;;;;;;;;;;;;5074564;28;19991;-26
2022/08/22 15:03:31;;;;;;;;;;;;;;;;;;5074194;28;20339;-26
2022/08/22 15:05:57;;;;;;;;;;;;;;;;;;5074710;28;20003;-26
2022/08/22 15:08:23;;;;;;;;;;;;;;;;;;5074488;28;19916;-26
2022/08/22 15:10:49;;;;;;;;;;;;;;;;;;5074344;28;19920;-26
2022/08/22 15:13:15;;;;;;;;;;;;;;;;;;5074392;28;19930;-27
2022/08/22 15:15:41;;;;;;;;;;;;;;;;;;5074992;28;19916;-26
2022/08/22 15:18:06;;;;;;;;;;;;;;;;;;5074908;28;20212;-26
2022/08/22 15:20:33;;;;;;;;;;;;;;;;;;5075761;28;19970;-26
2022/08/22 15:22:59;;;;;;;;;;;;;;;;;;5078206;28;20246;-26
2022/08/22 15:25:25;;;;;;;;;;;;;;;;;;5078531;28;19909;-26
2022/08/22 15:27:51;;;;;;;;;;;;;;;;;;5077889;28;19961;-26
2022/08/22 15:30:17;;;;;;;;;;;;;;;;;;5077810;28;19916;-26
2022/08/22 15:32:43;;;;;;;;;;;;;;;;;;5077706;28;20362;-26
2022/08/22 15:35:10;;;;;;;;;;;;;;;;;;5060142;28;19913;-26
2022/08/22 15:37:36;;;;;;;;;;;;;;;;;;5077718;28;19908;-26
2022/08/22 15:40:02;;;;;;;;;;;;;;;;;;5077626;28;19916;-26
2022/08/22 15:42:29;;;;;;;;;;;;;;;;;;5077808;28;20282;-26
2022/08/22 15:44:55;;;;;;;;;;;;;;;;;;5059880;28;20361;-26
2022/08/22 15:47:21;;;;;;;;;;;;;;;;;;5078083;28;20298;-26
2022/08/22 15:49:48;;;;;;;;;;;;;;;;;;5077775;28;19912;-26
2022/08/22 15:52:14;;;;;;;;;;;;;;;;;;5077327;28;19921;-26
2022/08/22 15:54:40;;;;;;;;;;;;;;;;;;5077285;28;19908;-26
2022/08/22 15:57:06;;;;;;;;;;;;;;;;;;5077380;28;20016;-26
2022/08/22 15:59:32;;;;;;;;;;;;;;;;;;5077259;28;19959;-26
2022/08/22 16:01:58;;;;;;;;;;;;;;;;;;5077265;28;19999;-26
2022/08/22 16:04:24;;;;;;;;;;;;;;;;;;5076999;28;19964;-26
2022/08/22 16:06:50;;;;;;;;;;;;;;;;;;5077701;28;19913;-26
2022/08/22 16:09:16;;;;;;;;;;;;;;;;;;5059487;28;20000;-26
2022/08/22 16:11:42;;;;;;;;;;;;;;;;;;5077224;28;20025;-26
2022/08/22 16:14:08;;;;;;;;;;;;;;;;;;5077278;28;20341;-26
2022/08/22 16:16:34;;;;;;;;;;;;;;;;;;5059334;28;19920;-27
2022/08/22 16:19:00;;;;;;;;;;;;;;;;;;5076857;28;19912;-27
2022/08/22 16:21:26;;;;;;;;;;;;;;;;;;5059222;28;19905;-26
2022/08/22 16:23:53;;;;;;;;;;;;;;;;;;5076838;28;19917;-26
2022/08/22 16:26:19;;;;;;;;;;;;;;;;;;5077404;28;19916;-26
2022/08/22 16:28:45;;;;;;;;;;;;;;;;;;5059125;28;20301;-26
2022/08/22 16:31:11;;;;;;;;;;;;;;;;;;5076739;28;20327;-26
2022/08/22 16:33:37;;;;;;;;;;;;;;;;;;5075875;28;20332;-26
2022/08/22 16:36:03;;;;;;;;;;;;;;;;;;5076860;28;19989;-26
2022/08/22 16:38:29;;;;;;;;;;;;;;;;;;5058971;28;19987;-26
2022/08/22 16:40:55;;;;;;;;;;;;;;;;;;5076446;28;19912;-26